Observation data for Abernathy on 05/24/2020      Previous  Date  Next       Current Mesonet Observations  Soil Data  Daily Summary Page  Observations in Plain Language
KARS 240500Z 15012KT 20/11 A2986 RMK A01 T01970105  RH  057%=      5-min Rain = 0
KARS 240505Z 16011KT 20/11 A2986 RMK A01 T01970106  RH  057%=      5-min Rain = 0
KARS 240510Z 16012KT 20/11 A2986 RMK A01 T01980105  RH  057%=      5-min Rain = 0
KARS 240515Z 19010KT 20/11 A2986 RMK A01 T01960107  RH  058%=      5-min Rain = 0
KARS 240520Z 18012KT 19/11 A2986 RMK A01 T01940109  RH  060%=      5-min Rain = 0
KARS 240525Z 17015G20KT 20/11 A2986 RMK A01 T01970107  RH  058%=      5-min Rain = 0
KARS 240530Z 16015KT 20/11 A2986 RMK A01 T01980107  RH  058%=      5-min Rain = 0
KARS 240535Z 16015KT 20/11 A2986 RMK A01 T01970107  RH  058%=      5-min Rain = 0
KARS 240540Z 17014G19KT 20/11 A2986 RMK A01 T01980105  RH  057%=      5-min Rain = 0
KARS 240545Z 18014KT 20/11 A2986 RMK A01 T01990106  RH  057%=      5-min Rain = 0
KARS 240550Z 17014KT 20/11 A2986 RMK A01 T01950110  RH  060%=      5-min Rain = 0
KARS 240555Z 17015KT 19/11 A2986 RMK A01 T01940112  RH  061%=      5-min Rain = 0
KARS 240600Z 18014KT 19/11 A2987 RMK A01 T01920114  RH  063%=      5-min Rain = 0
KARS 240605Z 18012KT 19/12 A2987 RMK A01 T01890115  RH  065%=      5-min Rain = 0
KARS 240610Z 18013KT 19/12 A2987 RMK A01 T01860119  RH  068%=      5-min Rain = 0
KARS 240615Z 18014KT 18/12 A2987 RMK A01 T01820123  RH  071%=      5-min Rain = 0
KARS 240620Z 18014KT 18/13 A2987 RMK A01 T01810126  RH  073%=      5-min Rain = 0
KARS 240625Z 17014KT 18/13 A2987 RMK A01 T01780128  RH  076%=      5-min Rain = 0
KARS 240630Z 18014KT 18/13 A2987 RMK A01 T01760128  RH  076%=      5-min Rain = 0
KARS 240635Z 17014G19KT 18/13 A2987 RMK A01 T01750127  RH  076%=      5-min Rain = 0
KARS 240640Z 17014G19KT 17/13 A2987 RMK A01 T01730127  RH  077%=      5-min Rain = 0
KARS 240645Z 17015KT 17/13 A2987 RMK A01 T01710126  RH  078%=      5-min Rain = 0
KARS 240650Z 17016KT 17/13 A2987 RMK A01 T01700127  RH  079%=      5-min Rain = 0
KARS 240655Z 17014KT 17/13 A2987 RMK A01 T01690128  RH  080%=      5-min Rain = 0
KARS 240700Z 17014KT 17/13 A2987 RMK A01 T01680128  RH  081%=      5-min Rain = 0
KARS 240705Z 17013KT 17/13 A2987 RMK A01 T01660128  RH  081%=      5-min Rain = 0
KARS 240710Z 18011KT 17/13 A2987 RMK A01 T01650129  RH  082%=      5-min Rain = 0
KARS 240715Z 17012KT 16/13 A2987 RMK A01 T01640129  RH  083%=      5-min Rain = 0
KARS 240720Z 17013KT 16/13 A2987 RMK A01 T01640129  RH  083%=      5-min Rain = 0
KARS 240725Z 17012KT 16/13 A2987 RMK A01 T01630129  RH  084%=      5-min Rain = 0
KARS 240730Z 18010KT 16/13 A2987 RMK A01 T01610128  RH  084%=      5-min Rain = 0
KARS 240735Z 17011KT 16/13 A2987 RMK A01 T01600128  RH  085%=      5-min Rain = 0
KARS 240740Z 17010KT 16/13 A2987 RMK A01 T01610127  RH  083%=      5-min Rain = 0
KARS 240745Z 17011KT 16/13 A2986 RMK A01 T01600125  RH  083%=      5-min Rain = 0
KARS 240750Z 17012KT 16/12 A2987 RMK A01 T01600124  RH  082%=      5-min Rain = 0
KARS 240755Z 17011KT 16/12 A2987 RMK A01 T01590124  RH  082%=      5-min Rain = 0
KARS 240800Z 17012KT 16/12 A2987 RMK A01 T01580124  RH  083%=      5-min Rain = 0
KARS 240805Z 16011KT 16/12 A2987 RMK A01 T01580123  RH  083%=      5-min Rain = 0
KARS 240810Z 16011KT 16/12 A2987 RMK A01 T01570123  RH  083%=      5-min Rain = 0
KARS 240815Z 16011KT 16/12 A2987 RMK A01 T01560123  RH  084%=      5-min Rain = 0
KARS 240820Z 16010KT 16/12 A2987 RMK A01 T01550122  RH  084%=      5-min Rain = 0
KARS 240825Z 15011KT 16/12 A2987 RMK A01 T01550122  RH  084%=      5-min Rain = 0
KARS 240830Z 16010KT 15/12 A2987 RMK A01 T01540121  RH  084%=      5-min Rain = 0
KARS 240835Z 15011KT 15/12 A2987 RMK A01 T01540121  RH  084%=      5-min Rain = 0
KARS 240840Z 15011KT 15/12 A2987 RMK A01 T01540120  RH  083%=      5-min Rain = 0
KARS 240845Z 16010KT 15/12 A2987 RMK A01 T01540119  RH  083%=      5-min Rain = 0
KARS 240850Z 15010KT 15/12 A2987 RMK A01 T01540119  RH  083%=      5-min Rain = 0
KARS 240855Z 15010KT 15/12 A2987 RMK A01 T01540119  RH  083%=      5-min Rain = 0
KARS 240900Z 16011KT 15/12 A2986 RMK A01 T01540119  RH  082%=      5-min Rain = 0
KARS 240905Z 15011KT 16/12 A2986 RMK A01 T01550118  RH  082%=      5-min Rain = 0
KARS 240910Z 16010KT 16/12 A2986 RMK A01 T01550117  RH  081%=      5-min Rain = 0
KARS 240915Z 16010KT 15/12 A2986 RMK A01 T01540116  RH  081%=      5-min Rain = 0
KARS 240920Z 16011KT 16/12 A2986 RMK A01 T01550116  RH  080%=      5-min Rain = 0
KARS 240925Z 16011KT 16/12 A2987 RMK A01 T01560115  RH  079%=      5-min Rain = 0
KARS 240930Z 16011KT 16/11 A2986 RMK A01 T01560114  RH  079%=      5-min Rain = 0
KARS 240935Z 16010KT 16/11 A2986 RMK A01 T01560114  RH  079%=      5-min Rain = 0
KARS 240940Z 16010KT 16/11 A2987 RMK A01 T01560113  RH  078%=      5-min Rain = 0
KARS 240945Z 16011KT 16/11 A2987 RMK A01 T01560112  RH  078%=      5-min Rain = 0
KARS 240950Z 16011KT 16/11 A2986 RMK A01 T01560112  RH  078%=      5-min Rain = 0
KARS 240955Z 16011KT 16/11 A2986 RMK A01 T01560111  RH  077%=      5-min Rain = 0
KARS 241000Z 16011KT 16/11 A2987 RMK A01 T01560111  RH  077%=      5-min Rain = 0
KARS 241005Z 16011KT 16/11 A2987 RMK A01 T01560111  RH  077%=      5-min Rain = 0
KARS 241010Z 16011KT 16/11 A2987 RMK A01 T01560111  RH  077%=      5-min Rain = 0
KARS 241015Z 16011KT 16/11 A2987 RMK A01 T01560111  RH  077%=      5-min Rain = 0
KARS 241020Z 16010KT 16/11 A2987 RMK A01 T01550110  RH  077%=      5-min Rain = 0
KARS 241025Z 15011KT 15/11 A2987 RMK A01 T01540110  RH  078%=      5-min Rain = 0
KARS 241030Z 16011KT 15/11 A2987 RMK A01 T01540110  RH  078%=      5-min Rain = 0
KARS 241035Z 16011KT 15/11 A2987 RMK A01 T01540111  RH  078%=      5-min Rain = 0
KARS 241040Z 16011KT 15/11 A2987 RMK A01 T01530111  RH  078%=      5-min Rain = 0
KARS 241045Z 16010KT 15/11 A2987 RMK A01 T01520111  RH  079%=      5-min Rain = 0
KARS 241050Z 15009KT 15/11 A2987 RMK A01 T01510111  RH  079%=      5-min Rain = 0
KARS 241055Z 16009KT 15/11 A2987 RMK A01 T01510111  RH  080%=      5-min Rain = 0
KARS 241100Z 15008KT 15/11 A2987 RMK A01 T01490111  RH  080%=      5-min Rain = 0
KARS 241105Z 16007KT 15/11 A2987 RMK A01 T01480111  RH  081%=      5-min Rain = 0
KARS 241110Z 17008KT 15/11 A2987 RMK A01 T01470111  RH  082%=      5-min Rain = 0
KARS 241115Z 17007KT 15/11 A2987 RMK A01 T01460111  RH  083%=      5-min Rain = 0
KARS 241120Z 17007KT 14/11 A2987 RMK A01 T01440110  RH  083%=      5-min Rain = 0
KARS 241125Z 18006KT 14/11 A2987 RMK A01 T01400109  RH  085%=      5-min Rain = 0
KARS 241130Z 18007KT 14/11 A2987 RMK A01 T01390109  RH  086%=      5-min Rain = 0
KARS 241135Z 19007KT 14/11 A2987 RMK A01 T01380109  RH  086%=      5-min Rain = 0
KARS 241140Z 18006KT 14/11 A2987 RMK A01 T01360109  RH  086%=      5-min Rain = 0
KARS 241145Z 17008KT 14/11 A2987 RMK A01 T01360110  RH  087%=      5-min Rain = 0
KARS 241150Z 17008KT 14/11 A2986 RMK A01 T01400112  RH  086%=      5-min Rain = 0
KARS 241155Z 17007KT 14/11 A2986 RMK A01 T01420112  RH  085%=      5-min Rain = 0
KARS 241200Z 16007KT 14/11 A2987 RMK A01 T01430112  RH  085%=      5-min Rain = 0
KARS 241205Z 15008KT 14/11 A2987 RMK A01 T01420111  RH  085%=      5-min Rain = 0
KARS 241210Z 16007KT 14/11 A2987 RMK A01 T01440112  RH  084%=      5-min Rain = 0
KARS 241215Z 17006KT 15/11 A2987 RMK A01 T01460113  RH  083%=      5-min Rain = 0
KARS 241220Z 17007KT 15/11 A2987 RMK A01 T01490114  RH  083%=      5-min Rain = 0
KARS 241225Z 17009KT 15/12 A2987 RMK A01 T01520115  RH  082%=      5-min Rain = 0
KARS 241230Z 17008KT 15/12 A2987 RMK A01 T01540116  RH  081%=      5-min Rain = 0
KARS 241235Z 17008KT 16/12 A2987 RMK A01 T01560117  RH  080%=      5-min Rain = 0
KARS 241240Z 17009KT 16/12 A2987 RMK A01 T01580117  RH  080%=      5-min Rain = 0
KARS 241245Z 18009KT 16/12 A2987 RMK A01 T01590117  RH  079%=      5-min Rain = 0
KARS 241250Z 19010KT 16/12 A2987 RMK A01 T01630118  RH  078%=      5-min Rain = 0
KARS 241255Z 19011KT 17/12 A2987 RMK A01 T01680119  RH  075%=      5-min Rain = 0
KARS 241300Z 19011KT 17/12 A2987 RMK A01 T01730119  RH  073%=      5-min Rain = 0
KARS 241305Z 19011KT 18/12 A2987 RMK A01 T01780119  RH  071%=      5-min Rain = 0
KARS 241310Z 19013KT 18/12 A2988 RMK A01 T01820119  RH  069%=      5-min Rain = 0
KARS 241315Z 18013G18KT 18/12 A2988 RMK A01 T01840120  RH  069%=      5-min Rain = 0
KARS 241320Z 19014KT 19/12 A2988 RMK A01 T01850119  RH  068%=      5-min Rain = 0
KARS 241325Z 19013KT 19/12 A2988 RMK A01 T01870120  RH  068%=      5-min Rain = 0
KARS 241330Z 19014KT 19/12 A2988 RMK A01 T01890121  RH  067%=      5-min Rain = 0
KARS 241335Z 19013KT 19/12 A2988 RMK A01 T01900122  RH  067%=      5-min Rain = 0
KARS 241340Z 19013KT 19/12 A2988 RMK A01 T01920123  RH  067%=      5-min Rain = 0
KARS 241345Z 19014KT 19/12 A2988 RMK A01 T01940124  RH  067%=      5-min Rain = 0
KARS 241350Z 19015KT 20/13 A2988 RMK A01 T01950125  RH  066%=      5-min Rain = 0
KARS 241355Z 18016KT 20/13 A2988 RMK A01 T01990126  RH  065%=      5-min Rain = 0
KARS 241400Z 18014KT 20/13 A2988 RMK A01 T02010127  RH  065%=      5-min Rain = 0
KARS 241405Z 18015G20KT 20/13 A2988 RMK A01 T02010127  RH  065%=      5-min Rain = 0
KARS 241410Z 18014KT 20/13 A2988 RMK A01 T02040128  RH  064%=      5-min Rain = 0
KARS 241415Z 18014KT 21/13 A2988 RMK A01 T02060129  RH  064%=      5-min Rain = 0
KARS 241420Z 18017KT 21/13 A2988 RMK A01 T02070129  RH  064%=      5-min Rain = 0
KARS 241425Z 18016KT 21/13 A2988 RMK A01 T02080131  RH  064%=      5-min Rain = 0
KARS 241430Z 18014G19KT 21/13 A2988 RMK A01 T02100132  RH  064%=      5-min Rain = 0
KARS 241435Z 18016KT 21/13 A2988 RMK A01 T02100132  RH  063%=      5-min Rain = 0
KARS 241440Z 18017G22KT 21/13 A2988 RMK A01 T02100131  RH  063%=      5-min Rain = 0
KARS 241445Z 19017KT 21/13 A2988 RMK A01 T02110131  RH  063%=      5-min Rain = 0
KARS 241450Z 19017G22KT 21/13 A2987 RMK A01 T02100132  RH  063%=      5-min Rain = 0
KARS 241455Z 19017KT 21/13 A2987 RMK A01 T02130133  RH  062%=      5-min Rain = 0
KARS 241500Z 19015KT 22/13 A2987 RMK A01 T02150134  RH  062%=      5-min Rain = 0
KARS 241505Z 18016KT 22/14 A2987 RMK A01 T02180135  RH  062%=      5-min Rain = 0
KARS 241510Z 19014G21KT 22/14 A2987 RMK A01 T02210136  RH  061%=      5-min Rain = 0
KARS 241515Z 20014G19KT 22/14 A2986 RMK A01 T02220137  RH  061%=      5-min Rain = 0
KARS 241520Z 19015G21KT 23/14 A2986 RMK A01 T02270138  RH  059%=      5-min Rain = 0
KARS 241525Z 20016G21KT 23/14 A2986 RMK A01 T02300137  RH  058%=      5-min Rain = 0
KARS 241530Z 20015KT 23/14 A2986 RMK A01 T02290137  RH  058%=      5-min Rain = 0
KARS 241535Z 19017G22KT 23/14 A2986 RMK A01 T02320138  RH  058%=      5-min Rain = 0
KARS 241540Z 19018KT 23/14 A2986 RMK A01 T02320138  RH  058%=      5-min Rain = 0
KARS 241545Z 21017KT 24/14 A2986 RMK A01 T02350137  RH  056%=      5-min Rain = 0
KARS 241550Z 21016G22KT 24/14 A2986 RMK A01 T02350138  RH  057%=      5-min Rain = 0
KARS 241555Z 21015G20KT 24/14 A2986 RMK A01 T02370138  RH  056%=      5-min Rain = 0
KARS 241600Z 21015G20KT 24/14 A2985 RMK A01 T02370138  RH  056%=      5-min Rain = 0
KARS 241605Z 20015G20KT 24/14 A2985 RMK A01 T02360138  RH  056%=      5-min Rain = 0
KARS 241610Z 22013G19KT 24/14 A2985 RMK A01 T02410139  RH  055%=      5-min Rain = 0
KARS 241615Z 21014G19KT 25/14 A2985 RMK A01 T02450140  RH  054%=      5-min Rain = 0
KARS 241620Z 20013G19KT 24/14 A2985 RMK A01 T02400139  RH  055%=      5-min Rain = 0
KARS 241625Z 21014KT 25/14 A2986 RMK A01 T02470139  RH  053%=      5-min Rain = 0
KARS 241630Z 21013G20KT 25/14 A2986 RMK A01 T02470139  RH  053%=      5-min Rain = 0
KARS 241635Z 20013KT 25/14 A2986 RMK A01 T02480140  RH  053%=      5-min Rain = 0
KARS 241640Z 21014KT 25/14 A2986 RMK A01 T02510139  RH  052%=      5-min Rain = 0
KARS 241645Z 21012KT 25/14 A2986 RMK A01 T02520139  RH  052%=      5-min Rain = 0
KARS 241650Z 21010G16KT 25/14 A2986 RMK A01 T02500139  RH  052%=      5-min Rain = 0
KARS 241655Z 21013G19KT 25/14 A2986 RMK A01 T02520139  RH  052%=      5-min Rain = 0
KARS 241700Z 20013G18KT 25/14 A2986 RMK A01 T02510140  RH  052%=      5-min Rain = 0
KARS 241705Z 19011G19KT 25/14 A2986 RMK A01 T02530144  RH  053%=      5-min Rain = 0
KARS 241710Z 20013KT 26/14 A2986 RMK A01 T02570142  RH  051%=      5-min Rain = 0
KARS 241715Z 20012KT 25/14 A2986 RMK A01 T02540144  RH  053%=      5-min Rain = 0
KARS 241720Z 20012KT 26/15 A2986 RMK A01 T02610146  RH  052%=      5-min Rain = 0
KARS 241725Z 18012KT 26/15 A2986 RMK A01 T02590149  RH  053%=      5-min Rain = 0
KARS 241730Z 17010G17KT 26/15 A2986 RMK A01 T02580153  RH  055%=      5-min Rain = 0
KARS 241735Z 17013G18KT 26/15 A2986 RMK A01 T02590153  RH  054%=      5-min Rain = 0
KARS 241740Z 18012G17KT 26/15 A2986 RMK A01 T02600151  RH  053%=      5-min Rain = 0
KARS 241745Z 20010KT 26/15 A2986 RMK A01 T02580151  RH  054%=      5-min Rain = 0
KARS 241750Z 19009G16KT 26/15 A2986 RMK A01 T02560151  RH  055%=      5-min Rain = 0
KARS 241755Z 17011G17KT 26/15 A2986 RMK A01 T02580151  RH  054%=      5-min Rain = 0
KARS 241800Z 17012G18KT 26/15 A2986 RMK A01 T02590150  RH  053%=      5-min Rain = 0
KARS 241805Z 18011G16KT 26/15 A2985 RMK A01 T02620148  RH  052%=      5-min Rain = 0
KARS 241810Z 17010KT 26/15 A2985 RMK A01 T02610146  RH  051%=      5-min Rain = 0
KARS 241815Z 18012G18KT 27/15 A2985 RMK A01 T02660151  RH  052%=      5-min Rain = 0
KARS 241820Z 18009KT 27/15 A2985 RMK A01 T02670149  RH  051%=      5-min Rain = 0
KARS 241825Z 18009G14KT 27/15 A2985 RMK A01 T02690149  RH  050%=      5-min Rain = 0
KARS 241830Z 19008KT 27/15 A2985 RMK A01 T02700146  RH  049%=      5-min Rain = 0
KARS 241835Z 17010G15KT 27/15 A2985 RMK A01 T02680148  RH  050%=      5-min Rain = 0
KARS 241840Z 17012KT 27/15 A2985 RMK A01 T02740153  RH  050%=      5-min Rain = 0
KARS 241845Z 17012G17KT 28/15 A2984 RMK A01 T02750154  RH  050%=      5-min Rain = 0
KARS 241850Z 19012G17KT 28/15 A2984 RMK A01 T02760151  RH  049%=      5-min Rain = 0
KARS 241855Z 17013KT 28/16 A2984 RMK A01 T02770156  RH  050%=      5-min Rain = 0
KARS 241900Z 17013G19KT 28/15 A2983 RMK A01 T02780154  RH  049%=      5-min Rain = 0
KARS 241905Z 16012G17KT 28/15 A2983 RMK A01 T02800153  RH  048%=      5-min Rain = 0
KARS 241910Z 16013G18KT 29/16 A2983 RMK A01 T02850158  RH  048%=      5-min Rain = 0
KARS 241915Z 18012KT 28/15 A2983 RMK A01 T02840154  RH  047%=      5-min Rain = 0
KARS 241920Z 18012KT 28/15 A2983 RMK A01 T02820149  RH  046%=      5-min Rain = 0
KARS 241925Z 17012KT 29/15 A2983 RMK A01 T02850148  RH  045%=      5-min Rain = 0
KARS 241930Z 16012G18KT 28/15 A2982 RMK A01 T02830154  RH  048%=      5-min Rain = 0
KARS 241935Z 17014G19KT 29/15 A2982 RMK A01 T02880151  RH  045%=      5-min Rain = 0
KARS 241940Z 18015G22KT 29/15 A2981 RMK A01 T02890146  RH  043%=      5-min Rain = 0
KARS 241945Z 18012G18KT 29/14 A2981 RMK A01 T02850142  RH  043%=      5-min Rain = 0
KARS 241950Z 18013G18KT 29/14 A2981 RMK A01 T02880141  RH  042%=      5-min Rain = 0
KARS 241955Z 17014G19KT 29/15 A2981 RMK A01 T02870152  RH  046%=      5-min Rain = 0
KARS 242000Z 17013G19KT 29/16 A2981 RMK A01 T02880155  RH  046%=      5-min Rain = 0
KARS 242005Z 19014G19KT 29/15 A2981 RMK A01 T02910149  RH  044%=      5-min Rain = 0
KARS 242010Z 17015G20KT 29/15 A2981 RMK A01 T02940150  RH  044%=      5-min Rain = 0
KARS 242015Z 17015G20KT 29/16 A2981 RMK A01 T02930155  RH  045%=      5-min Rain = 0
KARS 242020Z 17014G22KT 29/15 A298 RMK A01 T02920150  RH  044%=      5-min Rain = 0
KARS 242025Z 18014G19KT 30/16 A298 RMK A01 T03000156  RH  044%=      5-min Rain = 0
KARS 242030Z 17013G18KT 30/15 A298 RMK A01 T03000152  RH  043%=      5-min Rain = 0
KARS 242035Z 18013G19KT 30/15 A2979 RMK A01 T02980146  RH  041%=      5-min Rain = 0
KARS 242040Z 18015G21KT 30/15 A2979 RMK A01 T02950153  RH  044%=      5-min Rain = 0
KARS 242045Z 18015G20KT 30/16 A2979 RMK A01 T02990156  RH  044%=      5-min Rain = 0
KARS 242050Z 17013G20KT 30/15 A2978 RMK A01 T02960152  RH  043%=      5-min Rain = 0
KARS 242055Z 17012KT 30/15 A2978 RMK A01 T02970147  RH  042%=      5-min Rain = 0
KARS 242100Z 18014KT 30/15 A2978 RMK A01 T02970150  RH  043%=      5-min Rain = 0
KARS 242105Z 15012G18KT 30/15 A2977 RMK A01 T02990153  RH  043%=      5-min Rain = 0
KARS 242110Z 16013G21KT 30/15 A2977 RMK A01 T03020146  RH  041%=      5-min Rain = 0
KARS 242115Z 16012KT 30/15 A2977 RMK A01 T03010148  RH  041%=      5-min Rain = 0
KARS 242120Z 15015G21KT 30/15 A2976 RMK A01 T03030152  RH  042%=      5-min Rain = 0
KARS 242125Z 17013G19KT 30/15 A2976 RMK A01 T03030148  RH  041%=      5-min Rain = 0
KARS 242130Z 17012KT 30/15 A2976 RMK A01 T03030147  RH  040%=      5-min Rain = 0
KARS 242135Z 18011G16KT 30/13 A2975 RMK A01 T03030134  RH  037%=      5-min Rain = 0
KARS 242140Z 17011KT 30/14 A2975 RMK A01 T03030142  RH  039%=      5-min Rain = 0
KARS 242145Z 17011G16KT 30/14 A2974 RMK A01 T03030142  RH  039%=      5-min Rain = 0
KARS 242150Z 17011G18KT 31/14 A2973 RMK A01 T03060135  RH  037%=      5-min Rain = 0
KARS 242155Z 17009G14KT 30/13 A2973 RMK A01 T03040132  RH  036%=      5-min Rain = 0
KARS 242200Z 17012KT 31/13 A2973 RMK A01 T03060132  RH  036%=      5-min Rain = 0
KARS 242205Z 17010KT 31/13 A2973 RMK A01 T03050128  RH  035%=      5-min Rain = 0
KARS 242210Z 16008G14KT 31/13 A2973 RMK A01 T03050133  RH  036%=      5-min Rain = 0
KARS 242215Z 14010G18KT 31/13 A2973 RMK A01 T03060132  RH  036%=      5-min Rain = 0
KARS 242220Z 16009G15KT 31/14 A2972 RMK A01 T03080137  RH  037%=      5-min Rain = 0
KARS 242225Z 17010KT 30/13 A2972 RMK A01 T03040130  RH  036%=      5-min Rain = 0
KARS 242230Z 17009KT 31/13 A2971 RMK A01 T03050132  RH  036%=      5-min Rain = 0
KARS 242235Z 16010KT 31/13 A2971 RMK A01 T03050130  RH  036%=      5-min Rain = 0
KARS 242240Z 17011KT 30/13 A2971 RMK A01 T02980126  RH  036%=      5-min Rain = 0
KARS 242245Z 16009KT 30/13 A297 RMK A01 T02950131  RH  038%=      5-min Rain = 0
KARS 242250Z 16012KT 29/13 A297 RMK A01 T02930126  RH  037%=      5-min Rain = 0
KARS 242255Z 17011KT 29/13 A2972 RMK A01 T02900127  RH  038%=      5-min Rain = 0
KARS 242300Z 17012KT 29/13 A2973 RMK A01 T02890125  RH  038%=      5-min Rain = 0
KARS 242305Z 19011KT 29/13 A2974 RMK A01 T02860130  RH  040%=      5-min Rain = 0
KARS 242310Z 25012G18KT 28/11 A2976 RMK A01 T02840106  RH  035%=      5-min Rain = 0
KARS 242315Z 28015G23KT 27/04 A2976 RMK A01 T02730037  RH  022%=      5-min Rain = 0
KARS 242320Z 29017G25KT 26/05 A2975 RMK A01 T02560051  RH  027%=      5-min Rain = 0
KARS 242325Z 30015KT 25/07 A2976 RMK A01 T02480069  RH  033%=      5-min Rain = 0
KARS 242330Z 29019G27KT 23/08 A2975 RMK A01 T02330083  RH  039%=      5-min Rain = 0
KARS 242335Z 28020G28KT 21/10 A2978 RMK A01 T02090099  RH  051%=      5-min Rain = 0.03
KARS 242340Z 29022G35KT 21/09 A2981 RMK A01 T02060090  RH  049%=      5-min Rain = 0.03
KARS 242345Z 27011G17KT 21/09 A2983 RMK A01 T02090094  RH  049%=      5-min Rain = 0.02
KARS 242350Z 26005KT 20/10 A2983 RMK A01 T01970099  RH  055%=      5-min Rain = 0.05
KARS 242355Z 34006G11KT 20/10 A298 RMK A01 T01980099  RH  055%=      5-min Rain = 0.02
KARS 250000Z 01006G12KT 20/10 A2981 RMK A01 T01980103  RH  056%=      5-min Rain = 0.01
KARS 250005Z 22003KT 19/11 A298 RMK A01 T01910105  RH  060%=      5-min Rain = 0.01
KARS 250010Z 06009G17KT 20/11 A2978 RMK A01 T01980111  RH  059%=      5-min Rain = 0.01
KARS 250015Z 04019G26KT 20/10 A2975 RMK A01 T02030101  RH  054%=      5-min Rain = 0
KARS 250020Z 03025G31KT 20/10 A2972 RMK A01 T02030097  RH  052%=      5-min Rain = 0
KARS 250025Z 02018G25KT 21/09 A2969 RMK A01 T02110090  RH  047%=      5-min Rain = 0
KARS 250030Z 02022G31KT 21/09 A2967 RMK A01 T02130088  RH  046%=      5-min Rain = 0
KARS 250035Z 02024G35KT 22/08 A2966 RMK A01 T02150084  RH  044%=      5-min Rain = 0
KARS 250040Z 02023G31KT 22/08 A2966 RMK A01 T02220076  RH  040%=      5-min Rain = 0
KARS 250045Z 03025G30KT 22/08 A2966 RMK A01 T02210078  RH  041%=      5-min Rain = 0
KARS 250050Z 03025G34KT 21/08 A2965 RMK A01 T02140083  RH  044%=      5-min Rain = 0
KARS 250055Z 04025G33KT 22/08 A2964 RMK A01 T02180079  RH  042%=      5-min Rain = 0
KARS 250100Z 02022G30KT 23/07 A2963 RMK A01 T02280073  RH  038%=      5-min Rain = 0
KARS 250105Z 03022G27KT 23/07 A2964 RMK A01 T02300072  RH  037%=      5-min Rain = 0
KARS 250110Z 03018G24KT 22/09 A2965 RMK A01 T02160086  RH  045%=      5-min Rain = 0
KARS 250115Z 03018G23KT 22/08 A2967 RMK A01 T02170082  RH  043%=      5-min Rain = 0
KARS 250120Z 04016G21KT 22/08 A2968 RMK A01 T02180082  RH  043%=      5-min Rain = 0
KARS 250125Z 04015KT 22/09 A2968 RMK A01 T02150086  RH  045%=      5-min Rain = 0
KARS 250130Z 05013KT 21/09 A2969 RMK A01 T02100090  RH  048%=      5-min Rain = 0
KARS 250135Z 05012KT 21/09 A2969 RMK A01 T02080092  RH  049%=      5-min Rain = 0
KARS 250140Z 05012KT 21/09 A2969 RMK A01 T02090092  RH  049%=      5-min Rain = 0
KARS 250145Z 05011KT 21/10 A2969 RMK A01 T02080096  RH  050%=      5-min Rain = 0
KARS 250150Z 05010KT 21/10 A2968 RMK A01 T02050100  RH  052%=      5-min Rain = 0
KARS 250155Z 05009KT 20/10 A2968 RMK A01 T02030102  RH  054%=      5-min Rain = 0
KARS 250200Z 12009G16KT 20/11 A2969 RMK A01 T02010108  RH  057%=      5-min Rain = 0
KARS 250205Z 15018G28KT 20/11 A2971 RMK A01 T01950112  RH  061%=      5-min Rain = 0
KARS 250210Z 14019G26KT 20/11 A2973 RMK A01 T01970110  RH  059%=      5-min Rain = 0
KARS 250215Z 13018G25KT 19/11 A2973 RMK A01 T01910111  RH  062%=      5-min Rain = 0
KARS 250220Z 14018KT 19/11 A2973 RMK A01 T01910113  RH  063%=      5-min Rain = 0
KARS 250225Z 12018G23KT 19/11 A2973 RMK A01 T01880113  RH  064%=      5-min Rain = 0
KARS 250230Z 13019KT 19/11 A2973 RMK A01 T01850113  RH  065%=      5-min Rain = 0
KARS 250235Z 11019KT 19/11 A2972 RMK A01 T01850113  RH  065%=      5-min Rain = 0
KARS 250240Z 11018KT 19/11 A2972 RMK A01 T01850113  RH  065%=      5-min Rain = 0
KARS 250245Z 11017KT 19/11 A2972 RMK A01 T01850111  RH  064%=      5-min Rain = 0
KARS 250250Z 10019KT 19/11 A2971 RMK A01 T01880107  RH  062%=      5-min Rain = 0
KARS 250255Z 10019G24KT 19/10 A297 RMK A01 T01900104  RH  059%=      5-min Rain = 0
KARS 250300Z 10014KT 19/11 A297 RMK A01 T01870106  RH  061%=      5-min Rain = 0
KARS 250305Z 12012KT 19/11 A297 RMK A01 T01850108  RH  063%=      5-min Rain = 0
KARS 250310Z 14011KT 18/11 A2971 RMK A01 T01820112  RH  066%=      5-min Rain = 0
KARS 250315Z 13010KT 18/12 A2972 RMK A01 T01780116  RH  070%=      5-min Rain = 0
KARS 250320Z 11012KT 18/12 A2972 RMK A01 T01780115  RH  069%=      5-min Rain = 0
KARS 250325Z 12011KT 18/12 A2972 RMK A01 T01770118  RH  071%=      5-min Rain = 0
KARS 250330Z 11011KT 18/12 A2972 RMK A01 T01760118  RH  071%=      5-min Rain = 0
KARS 250335Z 11010KT 18/12 A2972 RMK A01 T01760119  RH  072%=      5-min Rain = 0
KARS 250340Z 11010KT 18/12 A2972 RMK A01 T01750119  RH  072%=      5-min Rain = 0
KARS 250345Z 11010KT 18/12 A2972 RMK A01 T01750119  RH  072%=      5-min Rain = 0
KARS 250350Z 12009KT 17/12 A2972 RMK A01 T01730122  RH  075%=      5-min Rain = 0
KARS 250355Z 11009KT 17/12 A2972 RMK A01 T01710122  RH  076%=      5-min Rain = 0
KARS 250400Z 10010KT 17/12 A2973 RMK A01 T01720121  RH  074%=      5-min Rain = 0
KARS 250405Z 10012KT 18/12 A2973 RMK A01 T01770116  RH  070%=      5-min Rain = 0
KARS 250410Z 10015KT 18/11 A2974 RMK A01 T01780112  RH  068%=      5-min Rain = 0
KARS 250415Z 11015KT 18/11 A2975 RMK A01 T01760114  RH  069%=      5-min Rain = 0
KARS 250420Z 12015KT 17/12 A2976 RMK A01 T01740116  RH  071%=      5-min Rain = 0
KARS 250425Z 12015KT 17/12 A2977 RMK A01 T01720117  RH  073%=      5-min Rain = 0
KARS 250430Z 11016G21KT 17/12 A2977 RMK A01 T01720117  RH  073%=      5-min Rain = 0
KARS 250435Z 12016KT 17/12 A2978 RMK A01 T01700118  RH  074%=      5-min Rain = 0
KARS 250440Z 13018G24KT 17/12 A2979 RMK A01 T01690118  RH  075%=      5-min Rain = 0
KARS 250445Z 13018KT 17/12 A2979 RMK A01 T01690117  RH  074%=      5-min Rain = 0
KARS 250450Z 13017KT 17/12 A298 RMK A01 T01680118  RH  075%=      5-min Rain = 0
KARS 250455Z 14018G23KT 17/12 A2981 RMK A01 T01650120  RH  077%=      5-min Rain = 0

Page generated in 0.0274 seconds.